sensor_id;sensor_type;location;lat;lon;timestamp;P1;durP1;ratioP1;P2;durP2;ratioP2
80961;SDS011;70424;55.154;14.722;2023-07-24T00:02:03;7.10;;;3.92;;
80961;SDS011;70424;55.154;14.722;2023-07-24T00:04:30;9.20;;;4.65;;
80961;SDS011;70424;55.154;14.722;2023-07-24T00:06:56;6.00;;;3.88;;
80961;SDS011;70424;55.154;14.722;2023-07-24T00:09:21;7.45;;;4.72;;
80961;SDS011;70424;55.154;14.722;2023-07-24T00:11:47;5.95;;;3.78;;
80961;SDS011;70424;55.154;14.722;2023-07-24T00:14:12;6.63;;;3.53;;
80961;SDS011;70424;55.154;14.722;2023-07-24T00:16:38;5.30;;;3.42;;
80961;SDS011;70424;55.154;14.722;2023-07-24T00:19:03;5.80;;;3.85;;
80961;SDS011;70424;55.154;14.722;2023-07-24T00:21:28;6.38;;;3.45;;
80961;SDS011;70424;55.154;14.722;2023-07-24T00:23:54;6.00;;;3.40;;
80961;SDS011;70424;55.154;14.722;2023-07-24T00:26:19;9.45;;;4.53;;
80961;SDS011;70424;55.154;14.722;2023-07-24T00:28:44;6.35;;;3.80;;
80961;SDS011;70424;55.154;14.722;2023-07-24T00:31:10;6.35;;;3.45;;
80961;SDS011;70424;55.154;14.722;2023-07-24T00:33:35;7.97;;;3.40;;
80961;SDS011;70424;55.154;14.722;2023-07-24T00:36:00;6.25;;;3.80;;
80961;SDS011;70424;55.154;14.722;2023-07-24T00:38:26;4.82;;;2.72;;
80961;SDS011;70424;55.154;14.722;2023-07-24T00:40:51;7.05;;;3.60;;
80961;SDS011;70424;55.154;14.722;2023-07-24T00:43:16;5.32;;;3.70;;
80961;SDS011;70424;55.154;14.722;2023-07-24T00:45:42;6.57;;;3.90;;
80961;SDS011;70424;55.154;14.722;2023-07-24T00:48:10;5.30;;;3.30;;
80961;SDS011;70424;55.154;14.722;2023-07-24T00:50:35;6.88;;;4.20;;
80961;SDS011;70424;55.154;14.722;2023-07-24T00:53:02;6.27;;;4.03;;
80961;SDS011;70424;55.154;14.722;2023-07-24T00:55:27;6.97;;;3.92;;
80961;SDS011;70424;55.154;14.722;2023-07-24T00:57:53;5.72;;;3.78;;
80961;SDS011;70424;55.154;14.722;2023-07-24T01:00:19;7.63;;;3.90;;
80961;SDS011;70424;55.154;14.722;2023-07-24T01:02:44;6.35;;;4.00;;
80961;SDS011;70424;55.154;14.722;2023-07-24T01:05:11;7.07;;;4.05;;
80961;SDS011;70424;55.154;14.722;2023-07-24T01:07:39;6.63;;;4.00;;
80961;SDS011;70424;55.154;14.722;2023-07-24T01:10:04;6.63;;;4.10;;
80961;SDS011;70424;55.154;14.722;2023-07-24T01:12:35;8.88;;;4.78;;
80961;SDS011;70424;55.154;14.722;2023-07-24T01:17:48;7.07;;;4.45;;
80961;SDS011;70424;55.154;14.722;2023-07-24T01:20:18;7.00;;;3.90;;
80961;SDS011;70424;55.154;14.722;2023-07-24T01:22:51;7.15;;;4.13;;
80961;SDS011;70424;55.154;14.722;2023-07-24T01:25:28;6.65;;;3.80;;
80961;SDS011;70424;55.154;14.722;2023-07-24T01:27:57;7.75;;;4.43;;
80961;SDS011;70424;55.154;14.722;2023-07-24T01:30:22;8.20;;;4.13;;
80961;SDS011;70424;55.154;14.722;2023-07-24T01:32:48;5.55;;;3.40;;
80961;SDS011;70424;55.154;14.722;2023-07-24T01:35:14;7.25;;;4.43;;
80961;SDS011;70424;55.154;14.722;2023-07-24T01:37:39;8.05;;;4.80;;
80961;SDS011;70424;55.154;14.722;2023-07-24T01:40:06;7.60;;;4.30;;
80961;SDS011;70424;55.154;14.722;2023-07-24T01:42:36;11.13;;;4.25;;
80961;SDS011;70424;55.154;14.722;2023-07-24T01:45:02;6.28;;;4.18;;
80961;SDS011;70424;55.154;14.722;2023-07-24T01:47:28;7.30;;;4.80;;
80961;SDS011;70424;55.154;14.722;2023-07-24T01:49:54;7.40;;;4.72;;
80961;SDS011;70424;55.154;14.722;2023-07-24T01:52:20;8.80;;;4.72;;
80961;SDS011;70424;55.154;14.722;2023-07-24T01:54:46;8.75;;;4.50;;
80961;SDS011;70424;55.154;14.722;2023-07-24T01:57:11;7.10;;;4.10;;
80961;SDS011;70424;55.154;14.722;2023-07-24T01:59:37;6.13;;;4.47;;
80961;SDS011;70424;55.154;14.722;2023-07-24T02:02:02;7.75;;;4.25;;
80961;SDS011;70424;55.154;14.722;2023-07-24T02:04:27;5.25;;;3.85;;
80961;SDS011;70424;55.154;14.722;2023-07-24T02:06:52;6.88;;;4.25;;
80961;SDS011;70424;55.154;14.722;2023-07-24T02:09:18;7.60;;;4.50;;
80961;SDS011;70424;55.154;14.722;2023-07-24T02:11:43;6.55;;;4.43;;
80961;SDS011;70424;55.154;14.722;2023-07-24T02:14:12;7.97;;;4.47;;
80961;SDS011;70424;55.154;14.722;2023-07-24T02:16:38;6.50;;;4.50;;
80961;SDS011;70424;55.154;14.722;2023-07-24T02:19:04;6.22;;;4.10;;
80961;SDS011;70424;55.154;14.722;2023-07-24T02:21:30;6.60;;;4.68;;
80961;SDS011;70424;55.154;14.722;2023-07-24T02:23:56;7.15;;;4.15;;
80961;SDS011;70424;55.154;14.722;2023-07-24T02:26:21;10.25;;;4.60;;
80961;SDS011;70424;55.154;14.722;2023-07-24T02:28:46;7.53;;;4.25;;
80961;SDS011;70424;55.154;14.722;2023-07-24T02:31:12;5.78;;;4.28;;
80961;SDS011;70424;55.154;14.722;2023-07-24T02:33:38;9.95;;;5.43;;
80961;SDS011;70424;55.154;14.722;2023-07-24T02:36:03;10.57;;;4.45;;
80961;SDS011;70424;55.154;14.722;2023-07-24T02:38:29;8.68;;;4.55;;
80961;SDS011;70424;55.154;14.722;2023-07-24T02:40:54;10.43;;;4.70;;
80961;SDS011;70424;55.154;14.722;2023-07-24T02:43:19;7.35;;;4.47;;
80961;SDS011;70424;55.154;14.722;2023-07-24T02:45:45;7.47;;;4.55;;
80961;SDS011;70424;55.154;14.722;2023-07-24T02:48:10;6.80;;;4.05;;
80961;SDS011;70424;55.154;14.722;2023-07-24T02:50:35;7.13;;;4.40;;
80961;SDS011;70424;55.154;14.722;2023-07-24T02:53:01;8.60;;;4.60;;
80961;SDS011;70424;55.154;14.722;2023-07-24T02:55:26;8.27;;;4.78;;
80961;SDS011;70424;55.154;14.722;2023-07-24T02:57:52;8.93;;;4.20;;
80961;SDS011;70424;55.154;14.722;2023-07-24T03:00:18;7.05;;;3.95;;
80961;SDS011;70424;55.154;14.722;2023-07-24T03:02:43;7.63;;;3.90;;
80961;SDS011;70424;55.154;14.722;2023-07-24T03:05:08;6.20;;;3.97;;
80961;SDS011;70424;55.154;14.722;2023-07-24T03:07:34;7.15;;;4.70;;
80961;SDS011;70424;55.154;14.722;2023-07-24T03:09:59;6.78;;;4.43;;
80961;SDS011;70424;55.154;14.722;2023-07-24T03:12:25;7.47;;;4.43;;
80961;SDS011;70424;55.154;14.722;2023-07-24T03:14:50;6.95;;;4.20;;
80961;SDS011;70424;55.154;14.722;2023-07-24T03:17:16;6.82;;;4.07;;
80961;SDS011;70424;55.154;14.722;2023-07-24T03:19:41;7.18;;;4.28;;
80961;SDS011;70424;55.154;14.722;2023-07-24T03:22:07;6.07;;;3.90;;
80961;SDS011;70424;55.154;14.722;2023-07-24T03:24:33;7.85;;;4.22;;
80961;SDS011;70424;55.154;14.722;2023-07-24T03:26:59;6.47;;;4.15;;
80961;SDS011;70424;55.154;14.722;2023-07-24T03:29:25;6.28;;;4.00;;
80961;SDS011;70424;55.154;14.722;2023-07-24T03:31:51;8.25;;;4.38;;
80961;SDS011;70424;55.154;14.722;2023-07-24T03:34:16;6.78;;;3.92;;
80961;SDS011;70424;55.154;14.722;2023-07-24T03:36:41;7.85;;;3.88;;
80961;SDS011;70424;55.154;14.722;2023-07-24T03:39:08;6.80;;;3.83;;
80961;SDS011;70424;55.154;14.722;2023-07-24T03:41:34;7.53;;;3.85;;
80961;SDS011;70424;55.154;14.722;2023-07-24T03:43:59;6.85;;;3.97;;
80961;SDS011;70424;55.154;14.722;2023-07-24T03:46:25;6.25;;;4.10;;
80961;SDS011;70424;55.154;14.722;2023-07-24T03:48:50;8.75;;;3.72;;
80961;SDS011;70424;55.154;14.722;2023-07-24T03:51:16;8.55;;;3.80;;
80961;SDS011;70424;55.154;14.722;2023-07-24T03:53:41;7.22;;;3.88;;
80961;SDS011;70424;55.154;14.722;2023-07-24T03:56:07;6.53;;;3.70;;
80961;SDS011;70424;55.154;14.722;2023-07-24T03:58:32;6.93;;;3.50;;
80961;SDS011;70424;55.154;14.722;2023-07-24T04:00:57;7.13;;;3.92;;
80961;SDS011;70424;55.154;14.722;2023-07-24T04:03:23;6.32;;;3.80;;
80961;SDS011;70424;55.154;14.722;2023-07-24T04:05:48;6.63;;;3.80;;
80961;SDS011;70424;55.154;14.722;2023-07-24T04:08:13;6.82;;;3.78;;
80961;SDS011;70424;55.154;14.722;2023-07-24T04:10:38;6.45;;;3.88;;
80961;SDS011;70424;55.154;14.722;2023-07-24T04:13:04;6.78;;;3.90;;
80961;SDS011;70424;55.154;14.722;2023-07-24T04:15:29;7.22;;;4.10;;
80961;SDS011;70424;55.154;14.722;2023-07-24T04:17:54;7.68;;;3.92;;
80961;SDS011;70424;55.154;14.722;2023-07-24T04:20:20;5.80;;;3.92;;
80961;SDS011;70424;55.154;14.722;2023-07-24T04:22:45;7.60;;;4.22;;
80961;SDS011;70424;55.154;14.722;2023-07-24T04:25:10;7.43;;;4.57;;
80961;SDS011;70424;55.154;14.722;2023-07-24T04:27:36;6.65;;;4.30;;
80961;SDS011;70424;55.154;14.722;2023-07-24T04:30:01;8.02;;;4.50;;
80961;SDS011;70424;55.154;14.722;2023-07-24T04:32:27;7.72;;;4.63;;
80961;SDS011;70424;55.154;14.722;2023-07-24T04:34:52;9.15;;;4.68;;
80961;SDS011;70424;55.154;14.722;2023-07-24T04:37:18;7.32;;;4.60;;
80961;SDS011;70424;55.154;14.722;2023-07-24T04:39:43;6.13;;;4.32;;
80961;SDS011;70424;55.154;14.722;2023-07-24T04:42:09;9.02;;;4.70;;
80961;SDS011;70424;55.154;14.722;2023-07-24T04:44:34;8.23;;;5.30;;
80961;SDS011;70424;55.154;14.722;2023-07-24T04:46:59;8.68;;;4.88;;
80961;SDS011;70424;55.154;14.722;2023-07-24T04:49:28;8.03;;;4.80;;
80961;SDS011;70424;55.154;14.722;2023-07-24T04:51:54;7.93;;;5.15;;
80961;SDS011;70424;55.154;14.722;2023-07-24T04:54:20;9.60;;;4.85;;
80961;SDS011;70424;55.154;14.722;2023-07-24T04:56:45;7.07;;;4.60;;
80961;SDS011;70424;55.154;14.722;2023-07-24T04:59:10;9.10;;;4.95;;
80961;SDS011;70424;55.154;14.722;2023-07-24T05:01:36;9.35;;;5.30;;
80961;SDS011;70424;55.154;14.722;2023-07-24T05:04:01;7.47;;;4.95;;
80961;SDS011;70424;55.154;14.722;2023-07-24T05:06:26;7.63;;;5.00;;
80961;SDS011;70424;55.154;14.722;2023-07-24T05:08:52;7.38;;;5.10;;
80961;SDS011;70424;55.154;14.722;2023-07-24T05:11:18;7.15;;;4.97;;
80961;SDS011;70424;55.154;14.722;2023-07-24T05:13:43;8.23;;;4.85;;
80961;SDS011;70424;55.154;14.722;2023-07-24T05:16:09;8.02;;;4.70;;
80961;SDS011;70424;55.154;14.722;2023-07-24T05:18:34;7.35;;;4.50;;
80961;SDS011;70424;55.154;14.722;2023-07-24T05:20:59;6.95;;;4.28;;
80961;SDS011;70424;55.154;14.722;2023-07-24T05:23:25;7.78;;;4.38;;
80961;SDS011;70424;55.154;14.722;2023-07-24T05:25:59;8.63;;;4.25;;
80961;SDS011;70424;55.154;14.722;2023-07-24T05:28:26;7.38;;;4.20;;
80961;SDS011;70424;55.154;14.722;2023-07-24T05:30:52;6.75;;;3.72;;
80961;SDS011;70424;55.154;14.722;2023-07-24T05:33:18;5.43;;;3.47;;
80961;SDS011;70424;55.154;14.722;2023-07-24T05:35:43;6.85;;;3.67;;
80961;SDS011;70424;55.154;14.722;2023-07-24T05:38:08;5.45;;;3.95;;
80961;SDS011;70424;55.154;14.722;2023-07-24T05:40:34;5.45;;;3.65;;
80961;SDS011;70424;55.154;14.722;2023-07-24T05:42:59;5.97;;;3.60;;
80961;SDS011;70424;55.154;14.722;2023-07-24T05:45:26;6.32;;;3.67;;
80961;SDS011;70424;55.154;14.722;2023-07-24T05:47:52;5.60;;;3.30;;
80961;SDS011;70424;55.154;14.722;2023-07-24T05:50:18;5.53;;;3.40;;
80961;SDS011;70424;55.154;14.722;2023-07-24T05:52:43;7.32;;;3.70;;
80961;SDS011;70424;55.154;14.722;2023-07-24T05:55:08;7.40;;;3.20;;
80961;SDS011;70424;55.154;14.722;2023-07-24T05:57:34;5.47;;;3.30;;
80961;SDS011;70424;55.154;14.722;2023-07-24T06:00:00;7.15;;;3.40;;
80961;SDS011;70424;55.154;14.722;2023-07-24T06:02:25;4.68;;;3.22;;
80961;SDS011;70424;55.154;14.722;2023-07-24T06:04:50;5.55;;;2.90;;
80961;SDS011;70424;55.154;14.722;2023-07-24T06:07:16;4.20;;;2.88;;
80961;SDS011;70424;55.154;14.722;2023-07-24T06:09:41;6.68;;;3.60;;
80961;SDS011;70424;55.154;14.722;2023-07-24T06:12:06;6.72;;;3.42;;
80961;SDS011;70424;55.154;14.722;2023-07-24T06:14:32;5.53;;;3.10;;
80961;SDS011;70424;55.154;14.722;2023-07-24T06:16:57;7.25;;;3.75;;
80961;SDS011;70424;55.154;14.722;2023-07-24T06:19:22;5.32;;;3.10;;
80961;SDS011;70424;55.154;14.722;2023-07-24T06:21:48;6.00;;;3.05;;
80961;SDS011;70424;55.154;14.722;2023-07-24T06:24:13;4.82;;;2.92;;
80961;SDS011;70424;55.154;14.722;2023-07-24T06:26:39;5.57;;;3.47;;
80961;SDS011;70424;55.154;14.722;2023-07-24T06:29:04;4.85;;;3.20;;
80961;SDS011;70424;55.154;14.722;2023-07-24T06:31:30;4.78;;;3.30;;
80961;SDS011;70424;55.154;14.722;2023-07-24T06:33:55;6.88;;;3.50;;
80961;SDS011;70424;55.154;14.722;2023-07-24T06:36:20;4.68;;;3.20;;
80961;SDS011;70424;55.154;14.722;2023-07-24T06:38:46;5.75;;;3.47;;
80961;SDS011;70424;55.154;14.722;2023-07-24T06:41:12;5.70;;;3.42;;
80961;SDS011;70424;55.154;14.722;2023-07-24T06:43:40;6.43;;;3.50;;
80961;SDS011;70424;55.154;14.722;2023-07-24T06:46:06;5.75;;;3.40;;
80961;SDS011;70424;55.154;14.722;2023-07-24T06:48:31;5.63;;;3.10;;
80961;SDS011;70424;55.154;14.722;2023-07-24T06:50:57;7.15;;;3.22;;
80961;SDS011;70424;55.154;14.722;2023-07-24T06:53:22;6.68;;;3.30;;
80961;SDS011;70424;55.154;14.722;2023-07-24T06:55:47;4.80;;;2.97;;
80961;SDS011;70424;55.154;14.722;2023-07-24T06:58:13;5.53;;;3.28;;
80961;SDS011;70424;55.154;14.722;2023-07-24T07:00:38;4.80;;;3.20;;
80961;SDS011;70424;55.154;14.722;2023-07-24T07:03:03;5.78;;;3.10;;
80961;SDS011;70424;55.154;14.722;2023-07-24T07:05:29;6.45;;;3.60;;
80961;SDS011;70424;55.154;14.722;2023-07-24T07:10:22;6.47;;;3.22;;
80961;SDS011;70424;55.154;14.722;2023-07-24T07:12:47;6.75;;;3.28;;
80961;SDS011;70424;55.154;14.722;2023-07-24T07:15:12;6.22;;;3.50;;
80961;SDS011;70424;55.154;14.722;2023-07-24T07:17:38;4.70;;;2.95;;
80961;SDS011;70424;55.154;14.722;2023-07-24T07:20:03;6.97;;;3.40;;
80961;SDS011;70424;55.154;14.722;2023-07-24T07:22:29;6.30;;;3.50;;
80961;SDS011;70424;55.154;14.722;2023-07-24T07:24:55;7.18;;;3.40;;
80961;SDS011;70424;55.154;14.722;2023-07-24T07:27:20;6.68;;;3.42;;
80961;SDS011;70424;55.154;14.722;2023-07-24T07:29:45;6.45;;;4.03;;
80961;SDS011;70424;55.154;14.722;2023-07-24T07:32:11;5.97;;;3.38;;
80961;SDS011;70424;55.154;14.722;2023-07-24T07:34:36;5.13;;;3.40;;
80961;SDS011;70424;55.154;14.722;2023-07-24T07:37:03;9.07;;;3.08;;
80961;SDS011;70424;55.154;14.722;2023-07-24T07:39:29;5.25;;;3.63;;
80961;SDS011;70424;55.154;14.722;2023-07-24T07:41:54;5.30;;;3.90;;
80961;SDS011;70424;55.154;14.722;2023-07-24T07:44:20;5.50;;;3.60;;
80961;SDS011;70424;55.154;14.722;2023-07-24T07:46:45;6.00;;;3.90;;
80961;SDS011;70424;55.154;14.722;2023-07-24T07:49:10;6.75;;;3.55;;
80961;SDS011;70424;55.154;14.722;2023-07-24T07:51:36;5.50;;;3.70;;
80961;SDS011;70424;55.154;14.722;2023-07-24T07:54:01;6.40;;;3.60;;
80961;SDS011;70424;55.154;14.722;2023-07-24T07:56:26;6.05;;;4.20;;
80961;SDS011;70424;55.154;14.722;2023-07-24T07:58:52;5.82;;;3.80;;
80961;SDS011;70424;55.154;14.722;2023-07-24T08:01:19;6.95;;;3.75;;
80961;SDS011;70424;55.154;14.722;2023-07-24T08:03:44;6.68;;;4.15;;
80961;SDS011;70424;55.154;14.722;2023-07-24T08:06:11;6.07;;;4.13;;
80961;SDS011;70424;55.154;14.722;2023-07-24T08:08:37;8.50;;;4.28;;
80961;SDS011;70424;55.154;14.722;2023-07-24T08:11:06;5.55;;;4.05;;
80961;SDS011;70424;55.154;14.722;2023-07-24T08:13:31;8.00;;;3.95;;
80961;SDS011;70424;55.154;14.722;2023-07-24T08:15:57;6.63;;;4.10;;
80961;SDS011;70424;55.154;14.722;2023-07-24T08:18:24;6.28;;;4.00;;
80961;SDS011;70424;55.154;14.722;2023-07-24T08:20:49;6.90;;;4.22;;
80961;SDS011;70424;55.154;14.722;2023-07-24T08:23:15;7.30;;;4.43;;
80961;SDS011;70424;55.154;14.722;2023-07-24T08:25:40;7.68;;;4.10;;
80961;SDS011;70424;55.154;14.722;2023-07-24T08:28:15;7.03;;;4.22;;
80961;SDS011;70424;55.154;14.722;2023-07-24T08:30:40;6.78;;;4.38;;
80961;SDS011;70424;55.154;14.722;2023-07-24T08:33:05;6.25;;;4.20;;
80961;SDS011;70424;55.154;14.722;2023-07-24T08:35:31;6.60;;;4.60;;
80961;SDS011;70424;55.154;14.722;2023-07-24T08:37:56;6.65;;;4.60;;
80961;SDS011;70424;55.154;14.722;2023-07-24T08:40:21;6.25;;;3.90;;
80961;SDS011;70424;55.154;14.722;2023-07-24T08:42:48;7.40;;;4.13;;
80961;SDS011;70424;55.154;14.722;2023-07-24T08:45:15;6.80;;;4.65;;
80961;SDS011;70424;55.154;14.722;2023-07-24T08:47:42;5.72;;;3.55;;
80961;SDS011;70424;55.154;14.722;2023-07-24T08:55:01;6.10;;;4.27;;
80961;SDS011;70424;55.154;14.722;2023-07-24T08:57:28;8.65;;;4.90;;
80961;SDS011;70424;55.154;14.722;2023-07-24T08:59:54;6.80;;;4.70;;
80961;SDS011;70424;55.154;14.722;2023-07-24T09:02:19;8.93;;;4.53;;
80961;SDS011;70424;55.154;14.722;2023-07-24T09:04:45;8.27;;;4.47;;
80961;SDS011;70424;55.154;14.722;2023-07-24T09:07:10;7.30;;;4.32;;
80961;SDS011;70424;55.154;14.722;2023-07-24T09:09:36;8.52;;;4.80;;
80961;SDS011;70424;55.154;14.722;2023-07-24T09:12:01;9.52;;;4.53;;
80961;SDS011;70424;55.154;14.722;2023-07-24T09:14:27;6.65;;;4.15;;
80961;SDS011;70424;55.154;14.722;2023-07-24T09:17:28;6.38;;;3.90;;
80961;SDS011;70424;55.154;14.722;2023-07-24T09:19:54;5.93;;;4.18;;
80961;SDS011;70424;55.154;14.722;2023-07-24T09:22:20;7.72;;;4.53;;
80961;SDS011;70424;55.154;14.722;2023-07-24T09:24:52;7.82;;;4.35;;
80961;SDS011;70424;55.154;14.722;2023-07-24T09:27:19;8.25;;;4.28;;
80961;SDS011;70424;55.154;14.722;2023-07-24T09:29:45;7.30;;;4.20;;
80961;SDS011;70424;55.154;14.722;2023-07-24T09:32:23;7.55;;;4.22;;
80961;SDS011;70424;55.154;14.722;2023-07-24T09:34:50;6.35;;;4.47;;
80961;SDS011;70424;55.154;14.722;2023-07-24T09:37:30;6.85;;;3.97;;
80961;SDS011;70424;55.154;14.722;2023-07-24T09:39:56;8.55;;;4.32;;
80961;SDS011;70424;55.154;14.722;2023-07-24T09:42:31;6.88;;;4.55;;
80961;SDS011;70424;55.154;14.722;2023-07-24T09:44:57;5.43;;;3.70;;
80961;SDS011;70424;55.154;14.722;2023-07-24T09:47:22;5.95;;;3.97;;
80961;SDS011;70424;55.154;14.722;2023-07-24T09:49:47;6.88;;;4.00;;
80961;SDS011;70424;55.154;14.722;2023-07-24T09:52:13;7.57;;;4.70;;
80961;SDS011;70424;55.154;14.722;2023-07-24T09:54:43;6.95;;;4.38;;
80961;SDS011;70424;55.154;14.722;2023-07-24T09:57:25;7.85;;;4.93;;
80961;SDS011;70424;55.154;14.722;2023-07-24T10:02:19;7.17;;;4.37;;
80961;SDS011;70424;55.154;14.722;2023-07-24T10:04:45;5.68;;;4.05;;
80961;SDS011;70424;55.154;14.722;2023-07-24T10:07:11;6.10;;;4.35;;
80961;SDS011;70424;55.154;14.722;2023-07-24T10:09:38;6.78;;;4.35;;
80961;SDS011;70424;55.154;14.722;2023-07-24T10:12:05;7.13;;;4.55;;
80961;SDS011;70424;55.154;14.722;2023-07-24T10:14:30;6.13;;;4.07;;
80961;SDS011;70424;55.154;14.722;2023-07-24T10:16:56;7.03;;;4.43;;
80961;SDS011;70424;55.154;14.722;2023-07-24T10:19:22;6.93;;;4.38;;
80961;SDS011;70424;55.154;14.722;2023-07-24T10:21:48;7.43;;;4.35;;
80961;SDS011;70424;55.154;14.722;2023-07-24T10:24:14;6.57;;;3.97;;
80961;SDS011;70424;55.154;14.722;2023-07-24T10:26:40;7.40;;;4.28;;
80961;SDS011;70424;55.154;14.722;2023-07-24T10:29:06;6.68;;;4.07;;
80961;SDS011;70424;55.154;14.722;2023-07-24T10:31:31;6.03;;;4.30;;
80961;SDS011;70424;55.154;14.722;2023-07-24T10:34:03;6.78;;;3.97;;
80961;SDS011;70424;55.154;14.722;2023-07-24T10:36:32;5.53;;;3.58;;
80961;SDS011;70424;55.154;14.722;2023-07-24T10:38:58;5.80;;;4.18;;
80961;SDS011;70424;55.154;14.722;2023-07-24T10:41:33;6.68;;;3.95;;
80961;SDS011;70424;55.154;14.722;2023-07-24T10:44:00;5.38;;;3.75;;
80961;SDS011;70424;55.154;14.722;2023-07-24T10:46:34;5.40;;;3.95;;
80961;SDS011;70424;55.154;14.722;2023-07-24T10:49:07;6.20;;;4.20;;
80961;SDS011;70424;55.154;14.722;2023-07-24T10:51:33;7.97;;;4.40;;
80961;SDS011;70424;55.154;14.722;2023-07-24T10:54:01;7.03;;;4.00;;
80961;SDS011;70424;55.154;14.722;2023-07-24T10:56:27;6.30;;;4.00;;
80961;SDS011;70424;55.154;14.722;2023-07-24T10:58:52;8.73;;;4.30;;
80961;SDS011;70424;55.154;14.722;2023-07-24T11:01:17;6.45;;;4.13;;
80961;SDS011;70424;55.154;14.722;2023-07-24T11:03:43;5.97;;;3.97;;
80961;SDS011;70424;55.154;14.722;2023-07-24T11:06:13;6.45;;;4.15;;
80961;SDS011;70424;55.154;14.722;2023-07-24T11:08:40;6.85;;;3.97;;
80961;SDS011;70424;55.154;14.722;2023-07-24T11:11:07;6.03;;;3.90;;
80961;SDS011;70424;55.154;14.722;2023-07-24T11:13:33;7.47;;;4.20;;
80961;SDS011;70424;55.154;14.722;2023-07-24T11:16:03;6.05;;;4.15;;
80961;SDS011;70424;55.154;14.722;2023-07-24T11:18:30;5.15;;;3.90;;
80961;SDS011;70424;55.154;14.722;2023-07-24T11:20:56;6.97;;;4.25;;
80961;SDS011;70424;55.154;14.722;2023-07-24T11:23:22;6.85;;;4.43;;
80961;SDS011;70424;55.154;14.722;2023-07-24T11:25:53;5.57;;;3.87;;
80961;SDS011;70424;55.154;14.722;2023-07-24T11:28:19;5.45;;;4.30;;
80961;SDS011;70424;55.154;14.722;2023-07-24T11:30:45;7.00;;;4.07;;
80961;SDS011;70424;55.154;14.722;2023-07-24T11:33:12;7.05;;;3.97;;
80961;SDS011;70424;55.154;14.722;2023-07-24T11:35:39;8.30;;;4.10;;
80961;SDS011;70424;55.154;14.722;2023-07-24T11:38:06;5.10;;;3.97;;
80961;SDS011;70424;55.154;14.722;2023-07-24T11:40:37;7.35;;;4.05;;
80961;SDS011;70424;55.154;14.722;2023-07-24T11:43:04;6.03;;;4.20;;
80961;SDS011;70424;55.154;14.722;2023-07-24T11:45:30;6.13;;;4.05;;
80961;SDS011;70424;55.154;14.722;2023-07-24T11:47:56;6.70;;;4.50;;
80961;SDS011;70424;55.154;14.722;2023-07-24T11:50:21;7.32;;;4.80;;
80961;SDS011;70424;55.154;14.722;2023-07-24T11:52:49;6.80;;;3.97;;
80961;SDS011;70424;55.154;14.722;2023-07-24T11:55:19;6.15;;;4.13;;
80961;SDS011;70424;55.154;14.722;2023-07-24T11:57:55;6.93;;;4.32;;
80961;SDS011;70424;55.154;14.722;2023-07-24T12:00:22;6.38;;;4.53;;
80961;SDS011;70424;55.154;14.722;2023-07-24T12:02:47;6.85;;;4.00;;
80961;SDS011;70424;55.154;14.722;2023-07-24T12:05:13;8.25;;;3.97;;
80961;SDS011;70424;55.154;14.722;2023-07-24T12:07:39;7.43;;;3.95;;
80961;SDS011;70424;55.154;14.722;2023-07-24T12:10:05;5.88;;;4.07;;
80961;SDS011;70424;55.154;14.722;2023-07-24T12:12:45;8.25;;;4.13;;
80961;SDS011;70424;55.154;14.722;2023-07-24T12:15:12;6.95;;;4.03;;
80961;SDS011;70424;55.154;14.722;2023-07-24T12:17:38;6.13;;;4.13;;
80961;SDS011;70424;55.154;14.722;2023-07-24T12:20:04;5.85;;;4.13;;
80961;SDS011;70424;55.154;14.722;2023-07-24T12:22:34;5.70;;;3.88;;
80961;SDS011;70424;55.154;14.722;2023-07-24T12:25:01;5.40;;;4.03;;
80961;SDS011;70424;55.154;14.722;2023-07-24T12:27:27;6.72;;;4.10;;
80961;SDS011;70424;55.154;14.722;2023-07-24T12:29:52;7.20;;;4.20;;
80961;SDS011;70424;55.154;14.722;2023-07-24T12:32:18;5.18;;;3.67;;
80961;SDS011;70424;55.154;14.722;2023-07-24T12:34:44;6.57;;;4.10;;
80961;SDS011;70424;55.154;14.722;2023-07-24T12:37:11;6.55;;;3.92;;
80961;SDS011;70424;55.154;14.722;2023-07-24T12:39:37;5.97;;;4.53;;
80961;SDS011;70424;55.154;14.722;2023-07-24T12:42:02;7.05;;;4.05;;
80961;SDS011;70424;55.154;14.722;2023-07-24T12:44:28;4.97;;;3.95;;
80961;SDS011;70424;55.154;14.722;2023-07-24T12:46:53;5.13;;;4.25;;
80961;SDS011;70424;55.154;14.722;2023-07-24T12:49:18;5.93;;;3.85;;
80961;SDS011;70424;55.154;14.722;2023-07-24T12:51:44;5.15;;;4.40;;
80961;SDS011;70424;55.154;14.722;2023-07-24T12:54:09;6.15;;;4.00;;
80961;SDS011;70424;55.154;14.722;2023-07-24T12:56:34;7.22;;;4.10;;
80961;SDS011;70424;55.154;14.722;2023-07-24T12:59:01;5.68;;;4.22;;
80961;SDS011;70424;55.154;14.722;2023-07-24T13:01:26;5.90;;;3.97;;
80961;SDS011;70424;55.154;14.722;2023-07-24T13:03:53;6.22;;;4.15;;
80961;SDS011;70424;55.154;14.722;2023-07-24T13:06:19;5.78;;;4.10;;
80961;SDS011;70424;55.154;14.722;2023-07-24T13:08:45;5.55;;;4.03;;
80961;SDS011;70424;55.154;14.722;2023-07-24T13:11:10;5.30;;;3.95;;
80961;SDS011;70424;55.154;14.722;2023-07-24T13:13:35;6.82;;;3.92;;
80961;SDS011;70424;55.154;14.722;2023-07-24T13:16:01;6.72;;;4.30;;
80961;SDS011;70424;55.154;14.722;2023-07-24T13:18:27;5.15;;;4.13;;
80961;SDS011;70424;55.154;14.722;2023-07-24T13:20:53;5.88;;;3.95;;
80961;SDS011;70424;55.154;14.722;2023-07-24T13:23:18;5.95;;;4.20;;
80961;SDS011;70424;55.154;14.722;2023-07-24T13:25:43;7.35;;;4.68;;
80961;SDS011;70424;55.154;14.722;2023-07-24T13:28:09;8.07;;;3.90;;
80961;SDS011;70424;55.154;14.722;2023-07-24T13:30:35;6.82;;;4.05;;
80961;SDS011;70424;55.154;14.722;2023-07-24T13:33:00;5.50;;;3.60;;
80961;SDS011;70424;55.154;14.722;2023-07-24T13:35:25;5.25;;;3.60;;
80961;SDS011;70424;55.154;14.722;2023-07-24T13:37:51;6.13;;;3.90;;
80961;SDS011;70424;55.154;14.722;2023-07-24T13:40:16;4.90;;;3.42;;
80961;SDS011;70424;55.154;14.722;2023-07-24T13:42:41;5.10;;;3.60;;
80961;SDS011;70424;55.154;14.722;2023-07-24T13:45:07;5.15;;;3.80;;
80961;SDS011;70424;55.154;14.722;2023-07-24T13:47:32;6.45;;;4.10;;
80961;SDS011;70424;55.154;14.722;2023-07-24T13:49:58;6.38;;;4.00;;
80961;SDS011;70424;55.154;14.722;2023-07-24T13:52:25;6.43;;;3.70;;
80961;SDS011;70424;55.154;14.722;2023-07-24T13:54:50;5.38;;;3.80;;
80961;SDS011;70424;55.154;14.722;2023-07-24T13:57:15;4.75;;;3.50;;
80961;SDS011;70424;55.154;14.722;2023-07-24T13:59:41;4.30;;;3.20;;
80961;SDS011;70424;55.154;14.722;2023-07-24T14:02:06;5.25;;;3.67;;
80961;SDS011;70424;55.154;14.722;2023-07-24T14:04:31;5.00;;;3.65;;
80961;SDS011;70424;55.154;14.722;2023-07-24T14:06:57;5.43;;;3.63;;
80961;SDS011;70424;55.154;14.722;2023-07-24T14:09:22;6.03;;;3.95;;
80961;SDS011;70424;55.154;14.722;2023-07-24T14:11:47;5.32;;;3.90;;
80961;SDS011;70424;55.154;14.722;2023-07-24T14:14:13;6.65;;;3.90;;
80961;SDS011;70424;55.154;14.722;2023-07-24T14:16:38;4.97;;;3.80;;
80961;SDS011;70424;55.154;14.722;2023-07-24T14:19:03;6.15;;;4.35;;
80961;SDS011;70424;55.154;14.722;2023-07-24T14:21:29;8.07;;;4.40;;
80961;SDS011;70424;55.154;14.722;2023-07-24T14:23:54;8.48;;;3.92;;
80961;SDS011;70424;55.154;14.722;2023-07-24T14:26:20;9.55;;;5.03;;
80961;SDS011;70424;55.154;14.722;2023-07-24T14:28:46;15.10;;;6.80;;
80961;SDS011;70424;55.154;14.722;2023-07-24T14:31:11;15.68;;;6.40;;
80961;SDS011;70424;55.154;14.722;2023-07-24T14:33:36;12.70;;;5.95;;
80961;SDS011;70424;55.154;14.722;2023-07-24T14:36:02;11.07;;;4.97;;
80961;SDS011;70424;55.154;14.722;2023-07-24T14:38:27;9.23;;;4.68;;
80961;SDS011;70424;55.154;14.722;2023-07-24T14:40:53;7.88;;;4.53;;